Weather at Mayne Island (Medical Emergency) Heliport

Public forecast

Using degrees Celsius for public forecast. Weather courtesy of forecast.io.

Closest aviation weather report (METAR) to Mayne Island (Medical Emergency) Heliport

Closest report is Victoria International Airport, 13.3 nm (24.6 km) SSW.

2024/05/21 02:00 (retrieved 14 minutes ago)

CYYJ 210200Z 02004KT 30SM FEW045 FEW100 OVC240 15/07 A3016 RMK SC1AC1CI8 SC TR AC TR SLP216

Closest aviation forecast (TAF) to Mayne Island (Medical Emergency) Heliport

Closest forecast is Victoria Harbour Seaplane Base, 25.6 nm (47.5 km) S.

2024/05/20 21:00 (retrieved 5 hours ago)

TAF CYWH 202040Z 2021/2104 18008KT P6SM FEW030 BKN230 FM210000 22015KT P6SM BKN120 RMK NXT FCST BY 211400Z